Flight Track Log - Related Links

Times and Time Zones

All times are in EDT time to prevent confusion due to time zone crossing. See the N899B flight status page for this flight to view local times or setup timezone preferences in your user account.

Time Position Orientation Groundspeed Altitude Reporting Facility
EDT Latitude Longitude Course Direction KTS MPH feet Rate Location/Type
Tue 11:13:03 AM 26.0786 -81.7925 329° Northwest 165 190 4,200  Level Miami Center
Tue 11:14:03 AM 26.0453 -81.8511 238° Southwest 197 227 6,300 2,250 Climbing Miami Center
Tue 11:15:03 AM 26.0447 -81.9250 270° West 210 242 8,700 2,300 Climbing Miami Center
Tue 11:16:03 AM 26.0336 -82.0031 261° West 233 268 10,900 2,050 Climbing Miami Center
Tue 11:17:03 AM 26.0475 -82.0847 281° West 257 296 12,800 1,950 Climbing Miami Center
Tue 11:18:00 AM 26.1205 -82.3637 329° Northwest  Level FlightAware Approximate
Tue 11:18:03 AM 26.0653 -82.1686 283° West 262 302 14,800  Level Miami Center
Tue 11:19:03 AM 26.0894 -82.2528 288° West 275 316 16,800 1,950 Climbing Miami Center
Tue 11:20:03 AM 26.1158 -82.3328 290° West 359 413 18,700 2,050 Climbing Miami Center
Tue 11:21:03 AM 26.1633 -82.3997 308° West 318 366 20,900 2,100 Climbing Miami Center
Tue 11:22:03 AM 26.2344 -82.4492 328° Northwest 268 308 22,900 1,750 Climbing Miami Center
Tue 11:23:03 AM 26.3083 -82.4828 338° Northwest 273 314 24,400 1,500 Climbing Miami Center
Tue 11:24:03 AM 26.3864 -82.5144 340° North 287 330 25,900 1,500 Climbing Miami Center
Tue 11:25:03 AM 26.4647 -82.5414 343° North 292 336 27,400 1,500 Climbing Miami Center
Tue 11:26:03 AM 26.5406 -82.5728 340° North 292 336 28,900 1,450 Climbing Miami Center
Tue 11:27:03 AM 26.6147 -82.5972 344° North 284 327 30,300 1,250 Climbing Miami Center
Tue 11:28:03 AM 26.6928 -82.6314 339° North 284 327 31,400 1,100 Climbing Miami Center
Tue 11:29:03 AM 26.7708 -82.6608 341° North 284 327 32,500 1,050 Climbing Miami Center
Tue 11:30:03 AM 26.8511 -82.6928 340° North 289 333 33,500 1,000 Climbing Miami Center
Tue 11:31:03 AM 26.9269 -82.7219 341° North 289 333 34,500 1,000 Climbing Miami Center
Tue 11:32:03 AM 27.0094 -82.7519 342° North 294 338 35,500 900 Climbing Miami Center
Tue 11:33:03 AM 27.0872 -82.7839 340° North 299 344 36,300 750 Climbing Miami Center
Tue 11:34:03 AM 27.1694 -82.8161 341° North 299 344 37,000 750 Climbing Miami Center
Tue 11:35:03 AM 27.2586 -82.8322 351° North 306 352 37,800 750 Climbing Miami Center
Tue 11:36:03 AM 27.3475 -82.8461 352° North 311 358 38,500 800 Climbing Miami Center
Tue 11:37:03 AM 27.4294 -82.8833 338° Northwest 315 362 39,400 700 Climbing Miami Center
Tue 11:38:03 AM 27.5094 -82.9178 339° North 310 357 39,900 200 Climbing Miami Center
Tue 11:40:03 AM 27.6783 -82.9956 338° Northwest 318 366 40,000 33 Climbing Jacksonville Center
Tue 11:41:04 AM 27.7703 -83.0217 346° North 330 380 40,000  Level Jacksonville Center
Tue 11:42:04 AM 27.8744 -83.0194 North 355 409 40,000  Level Jacksonville Center
Tue 11:43:04 AM 27.9808 -83.0219 359° North 360 414 40,000  Level Jacksonville Center
Tue 11:44:04 AM 28.0728 -83.0242 359° North 366 421 40,000  Level Jacksonville Center
Tue 11:45:04 AM 28.1792 -83.0267 359° North 371 427 40,000 350 Level Jacksonville Center
Tue 11:46:04 AM 28.2833 -83.0269 360° North 371 427 40,700 700 Climbing Jacksonville Center
Tue 11:47:04 AM 28.3814 -83.0294 359° North 360 414 41,400 650 Climbing Jacksonville Center
Tue 11:48:04 AM 28.4669 -83.0556 345° North 337 388 42,000 550 Climbing Jacksonville Center
Tue 11:49:04 AM 28.5567 -83.0794 347° North 332 382 42,500 450 Climbing Jacksonville Center
Tue 11:50:04 AM 28.6444 -83.1056 345° North 327 376 42,900 250 Climbing Jacksonville Center
Tue 11:51:04 AM 28.7361 -83.1317 346° North 327 376 43,000 50 Climbing Jacksonville Center
Tue 11:52:04 AM 28.8278 -83.1581 346° North 327 376 43,000  Level Jacksonville Center
Tue 11:53:04 AM 28.9217 -83.1867 345° North 339 390 43,000  Level Jacksonville Center
Tue 11:54:03 AM 29.0136 -83.2131 346° North 339 390 43,000  Level Jacksonville Center
Tue 11:55:04 AM 29.1117 -83.2419 346° North 344 396 43,000  Level Jacksonville Center
Tue 11:56:04 AM 29.2075 -83.2686 346° North 344 396 43,000  Level Jacksonville Center
Tue 11:57:03 AM 29.3033 -83.2975 345° North 344 396 43,000  Level Jacksonville Center
Tue 11:58:04 AM 29.3994 -83.3264 345° North 349 402 43,000  Level Jacksonville Center
Tue 11:59:04 AM 29.4975 -83.3556 345° North 354 407 43,000  Level Jacksonville Center
Tue 12:00:03 PM 29.5911 -83.3847 345° North 354 407 43,000  Level Jacksonville Center
Tue 12:01:04 PM 29.6892 -83.4139 346° North 354 407 43,000  Level Jacksonville Center
Tue 12:02:04 PM 29.7850 -83.4431 345° North 354 407 43,000  Level Jacksonville Center
Tue 12:03:03 PM 29.8811 -83.4675 348° North 354 407 43,000  Level Jacksonville Center
Tue 12:04:03 PM 29.9769 -83.4969 345° North 354 407 43,000  Level Jacksonville Center
Tue 12:05:03 PM 30.0728 -83.5261 345° North 354 407 43,000  Level Jacksonville Center
Tue 12:06:04 PM 30.1667 -83.5533 346° North 354 407 43,000  Level Jacksonville Center
Tue 12:07:04 PM 30.2606 -83.5803 346° North 354 407 43,000  Level Jacksonville Center
Tue 12:08:03 PM 30.3542 -83.6100 345° North 349 402 43,000  Level Jacksonville Center
Tue 12:09:04 PM 30.4461 -83.6347 347° North 349 402 43,000  Level Jacksonville Center
Tue 12:10:04 PM 30.5397 -83.6619 346° North 343 395 43,000  Level Jacksonville Center
Tue 12:11:04 PM 30.6356 -83.6917 345° North 333 383 43,000  Level Jacksonville Center
Tue 12:12:04 PM 30.7294 -83.7214 345° North 338 389 43,000  Level Jacksonville Center
Tue 12:13:04 PM 30.8211 -83.7489 346° North 338 389 43,000  Level Jacksonville Center
Tue 12:14:04 PM 30.9128 -83.7764 346° North 338 389 43,000  Level Jacksonville Center
Tue 12:15:04 PM 31.0044 -83.8039 346° North 338 389 43,000  Level Jacksonville Center
Tue 12:16:04 PM 31.0961 -83.8339 344° North 338 389 43,000  Level Jacksonville Center
Tue 12:17:04 PM 31.1878 -83.8592 347° North 338 389 43,000  Level Jacksonville Center
Tue 12:19:19 PM 31.3897 -83.9244 345° North 338 389 43,000  Level Atlanta Center
Tue 12:20:19 PM 31.4794 -83.9536 345° North 324 373 43,000  Level Atlanta Center
Tue 12:21:19 PM 31.5692 -83.9803 346° North 325 374 43,000  Level Atlanta Center
Tue 12:22:19 PM 31.6631 -84.0072 346° North 325 374 43,000  Level Atlanta Center
Tue 12:23:19 PM 31.7550 -84.0364 345° North 330 380 43,000  Level Atlanta Center
Tue 12:24:19 PM 31.8447 -84.0633 346° North 330 380 43,000  Level Atlanta Center
Tue 12:25:19 PM 31.9344 -84.0903 346° North 335 386 43,000  Level Atlanta Center
Tue 12:26:19 PM 32.0242 -84.1172 346° North 335 386 43,000  Level Atlanta Center
Tue 12:27:19 PM 32.1161 -84.1442 346° North 335 386 43,000  Level Atlanta Center
Tue 12:28:19 PM 32.2078 -84.1739 345° North 335 386 43,000  Level Atlanta Center
Tue 12:29:19 PM 32.2789 -84.1961 345° North 335 386 43,000  Level Atlanta Center
Tue 12:30:19 PM 32.3747 -84.2258 345° North 335 386 43,000  Level Atlanta Center
Tue 12:31:19 PM 32.4644 -84.2531 346° North 335 386 43,000  Level Atlanta Center
Tue 12:32:19 PM 32.5542 -84.2828 344° North 335 386 43,000  Level Atlanta Center
Tue 12:33:19 PM 32.6417 -84.3103 345° North 335 386 43,000  Level Atlanta Center
Tue 12:34:19 PM 32.7314 -84.3375 346° North 330 380 43,000  Level Atlanta Center
Tue 12:35:19 PM 32.8275 -84.3675 345° North 325 374 43,000  Level Atlanta Center
Tue 12:36:19 PM 32.9169 -84.3978 344° North 325 374 43,000  Level Atlanta Center
Tue 12:37:19 PM 33.0067 -84.4253 346° North 325 374 43,000  Level Atlanta Center
Tue 12:38:19 PM 33.0944 -84.4528 345° North 319 367 43,000  Level Atlanta Center
Tue 12:39:19 PM 33.1736 -84.4781 345° North 319 367 43,000  Level Atlanta Center
Tue 12:40:19 PM 33.2672 -84.5083 345° North 329 379 43,000  Level Atlanta Center
Tue 12:41:19 PM 33.3550 -84.5386 344° North 329 379 43,000  Level Atlanta Center
Tue 12:42:19 PM 33.4467 -84.5667 346° North 329 379 43,000  Level Atlanta Center
Tue 12:43:19 PM 33.5383 -84.5972 344° North 334 384 43,000  Level Atlanta Center
Tue 12:44:19 PM 33.6383 -84.6278 346° North 340 391 43,000  Level Atlanta Center
Tue 12:45:19 PM 33.7300 -84.6583 345° North 340 391 43,000  Level Atlanta Center
Tue 12:46:19 PM 33.8217 -84.6889 345° North 340 391 43,000  Level Atlanta Center
Tue 12:47:19 PM 33.9133 -84.7147 347° North 340 391 43,000  Level Atlanta Center
Tue 12:48:19 PM 34.0031 -84.7481 343° North 335 386 43,000  Level Atlanta Center
Tue 12:49:19 PM 34.0947 -84.7764 346° North 335 386 43,000  Level Atlanta Center
Tue 12:50:19 PM 34.1822 -84.8047 345° North 346 398 43,000  Level Atlanta Center
Tue 12:51:19 PM 34.2758 -84.8356 345° North 346 398 43,000  Level Atlanta Center
Tue 12:52:19 PM 34.3675 -84.8617 347° North 336 387 43,000  Level Atlanta Center
Tue 12:53:19 PM 34.4592 -84.8953 343° North 336 387 43,000  Level Atlanta Center
Tue 12:54:19 PM 34.5550 -84.9242 346° North 336 387 43,000  Level Atlanta Center
Tue 12:55:19 PM 34.6550 -84.9581 344° North 336 387 43,000  Level Atlanta Center
Tue 12:56:19 PM 34.7422 -84.9892 344° North 331 381 43,000  Level Atlanta Center
Tue 12:57:19 PM 34.8361 -85.0181 346° North 336 387 43,000  Level Atlanta Center
Tue 12:58:19 PM 34.9275 -85.0522 343° North 336 387 43,000  Level Atlanta Center
Tue 12:59:19 PM 35.0211 -85.0811 346° North 336 387 43,000  Level Atlanta Center
Tue 01:00:19 PM 35.1147 -85.1128 345° North 336 387 43,000  Level Atlanta Center
Tue 01:01:19 PM 35.2083 -85.1419 346° North 336 387 43,000  Level Atlanta Center
Tue 01:02:19 PM 35.3019 -85.1739 344° North 336 387 43,000  Level Atlanta Center
Tue 01:03:19 PM 35.3956 -85.2083 343° North 336 387 43,000  Level Atlanta Center
Tue 01:04:57 PM 35.5511 -85.2586 345° North 349 402 43,000  Level Memphis Center
Tue 01:05:57 PM 35.6464 -85.2911 345° North 354 407 43,000  Level Memphis Center
Tue 01:06:57 PM 35.7417 -85.3236 345° North 354 407 43,000  Level Memphis Center
Tue 01:07:57 PM 35.8367 -85.3561 344° North 354 407 43,000  Level Memphis Center
Tue 01:08:57 PM 35.9339 -85.3886 345° North 354 407 43,000  Level Memphis Center
Tue 01:09:57 PM 36.0269 -85.4192 345° North 354 407 43,000  Level Memphis Center
Tue 01:10:57 PM 36.1264 -85.4542 344° North 354 407 43,000  Level Memphis Center
Tue 01:11:57 PM 36.2192 -85.4872 344° North 354 407 43,000  Level Memphis Center
Tue 01:12:57 PM 36.3144 -85.5200 345° North 354 407 43,000  Level Memphis Center
Tue 01:13:57 PM 36.4114 -85.5506 346° North 354 407 43,000  Level Memphis Center
Tue 01:14:22 PM 36.4342 -85.5586 344° North 357 411 43,000  Level Indianapolis Center
Tue 01:15:24 PM 36.5500 -85.5981 345° North 358 412 43,000  Level Indianapolis Center
Tue 01:16:25 PM 36.6458 -85.6311 345° North 357 411 43,000  Level Indianapolis Center
Tue 01:16:57 PM 36.6986 -85.6497 344° North 354 407 43,000  Level Memphis Center
Tue 01:17:57 PM 36.7939 -85.6856 343° North 359 413 43,000  Level Memphis Center
Tue 01:19:31 PM 36.9347 -85.7300 346° North 353 406 43,000  Level Indianapolis Center
Tue 01:20:33 PM 37.0336 -85.7461 353° North 354 407 43,000  Level Indianapolis Center
Tue 01:21:35 PM 37.1317 -85.7669 350° North 351 404 43,000  Level Indianapolis Center
Tue 01:22:36 PM 37.2300 -85.7864 351° North 354 407 43,000  Level Indianapolis Center
Tue 01:23:38 PM 37.3375 -85.8094 350° North 357 411 43,000  Level Indianapolis Center
Tue 01:24:40 PM 37.4331 -85.8325 349° North 351 404 43,000  Level Indianapolis Center
Tue 01:25:42 PM 37.5339 -85.8744 342° North 346 398 43,000  Level Indianapolis Center
Tue 01:26:43 PM 37.6208 -85.9067 344° North 355 409 43,000  Level Indianapolis Center
Tue 01:27:45 PM 37.7139 -85.9419 343° North 350 403 43,000  Level Indianapolis Center
Tue 01:29:00 PM 37.8249 -85.9824 344° North  Level FlightAware Approximate
Tue 01:29:49 PM 37.9197 -86.0192 344° North 351 404 43,000  Level Indianapolis Center
Tue 01:30:51 PM 38.0119 -86.0556 343° North 349 402 43,000 -823 Level Indianapolis Center
Tue 01:31:53 PM 38.1089 -86.0922 343° North 361 415 41,300 -2,000 Descending Indianapolis Center
Tue 01:32:54 PM 38.2142 -86.1333 343° North 390 449 38,900 -2,439 Descending Indianapolis Center
Tue 01:33:56 PM 38.3158 -86.1722 343° North 384 442 36,300 -2,613 Descending Indianapolis Center
Tue 01:34:58 PM 38.4164 -86.2122 343° North 380 437 33,500 -2,081 Descending Indianapolis Center
Tue 01:36:00 PM 38.5369 -86.2597 343° North 378 435 32,000 -968 Descending Indianapolis Center
Tue 01:37:02 PM 38.6397 -86.2989 343° North 383 441 31,500 -919 Descending Indianapolis Center
Tue 01:38:04 PM 38.7431 -86.3386 343° North 389 448 30,100 -732 Descending Indianapolis Center
Tue 01:39:05 PM 38.8472 -86.3806 343° North 390 449 30,000 -49 Descending Indianapolis Center
Tue 01:40:07 PM 38.9519 -86.4219 343° North 393 452 30,000 -48 Level Indianapolis Center
Tue 01:41:09 PM 39.0558 -86.4625 343° North 391 450 29,900 -341 Descending Indianapolis Center
Tue 01:42:10 PM 39.1614 -86.5033 343° North 393 452 29,300 -439 Descending Indianapolis Center
Tue 01:43:12 PM 39.2886 -86.5550 343° North 400 460 29,000 -145 Descending Indianapolis Center
Tue 01:44:14 PM 39.3922 -86.5956 343° North 389 448 29,000  Level Indianapolis Center
Tue 01:45:16 PM 39.4956 -86.6381 342° North 389 448 29,000 -49 Level Indianapolis Center
Tue 01:46:17 PM 39.5967 -86.6786 343° North 381 438 28,900 -537 Descending Indianapolis Center
Tue 01:47:19 PM 39.6975 -86.7192 343° North 380 437 27,900 -1,113 Descending Indianapolis Center
Tue 01:48:21 PM 39.8008 -86.7597 343° North 383 441 26,600 -1,065 Descending Indianapolis Center
Tue 01:49:23 PM 39.9014 -86.7869 348° North 377 434 25,700 -1,016 Descending Indianapolis Center
Tue 01:50:25 PM 40.0194 -86.7858 360° North 356 410 24,500 -829 Descending Indianapolis Center
Tue 01:51:26 PM 40.1150 -86.8394 337° Northwest 369 425 24,000 -519 Descending Indianapolis Center
Tue 01:52:09 PM 40.1717 -86.8672 339° North 368 423 23,600 -2,000 Descending Chicago Center
Tue 01:53:11 PM 40.2611 -86.9131 339° North 353 406 20,500 -3,097 Descending Chicago Center
Tue 01:54:13 PM 40.3650 -86.9689 338° Northwest 342 394 17,200 -2,855 Descending Chicago Center
Tue 01:55:15 PM 40.4506 -87.0133 338° Northwest 335 386 14,600 -2,226 Descending Chicago Center
Tue 01:56:17 PM 40.5356 -87.0589 338° Northwest 333 383 12,600 -1,452 Descending Chicago Center
Tue 01:57:19 PM 40.6203 -87.1019 339° North 331 381 11,600 -726 Descending Chicago Center
Tue 01:58:21 PM 40.7069 -87.1478 338° Northwest 334 384 11,100 -242 Descending Chicago Center
Tue 01:59:23 PM 40.8081 -87.2008 338° Northwest 331 381 11,100 -194 Level Chicago Center
Tue 02:00:25 PM 40.8936 -87.2444 339° North 331 381 10,700 -484 Descending Chicago Center
Tue 02:01:27 PM 40.9794 -87.2781 344° North 332 382 10,100 -968 Descending Chicago Center
Tue 02:02:29 PM 41.0667 -87.2769 North 322 371 8,700 -1,500 Descending Chicago Center
Tue 02:03:31 PM 41.1489 -87.2775 360° North 305 351 7,000 -1,887 Descending Chicago Center
Tue 02:04:33 PM 41.2456 -87.2775 360° North 296 341 4,800 -1,500 Descending Chicago Center
Tue 02:05:35 PM 41.3258 -87.2769 360° North 294 338 3,900 -439 Descending Chicago Center
Tue 02:06:36 PM 41.4033 -87.2775 360° North 289 333 3,900  Level Chicago Center
Tue 02:06:59 PM 41.4333 -87.2833 352° North 288 331 3,900  Level Chicago TRACON
Tue 02:07:59 PM 41.5167 -87.2833 360° North 291 335 3,900  Level Chicago TRACON
Tue 02:08:59 PM 41.6000 -87.3000 351° North 286 329 3,900  Level Chicago TRACON
Tue 02:09:42 PM 41.6489 -87.3244 340° North 289 333 3,900 -343 Level Chicago Center
Tue 02:10:44 PM 41.7211 -87.3592 340° North 283 326 3,300 -435 Descending Chicago Center
Tue 02:11:46 PM 41.7900 -87.3942 339° North 277 319 3,000 -145 Descending Chicago Center
Tue 02:12:48 PM 41.8547 -87.4278 339° North 266 306 3,000  Level Chicago Center
Tue 02:13:49 PM 41.9158 -87.4592 339° North 254 292 3,000  Level Chicago Center
Tue 02:14:51 PM 41.9767 -87.4906 339° North 244 281 3,000  Level Chicago Center
Tue 02:15:53 PM 42.0517 -87.5292 339° North 242 278 3,000  Level Chicago Center
Tue 02:17:00 PM 42.1167 -87.5667 337° Northwest 230 265 3,000  Level Chicago TRACON
Tue 02:18:00 PM 42.1833 -87.6000 340° North 224 258 3,000  Level Chicago TRACON
Tue 02:19:00 PM 42.2167 -87.6500 312° West 214 246 3,000  Level Chicago TRACON
Tue 02:20:00 PM 42.2547 -87.7033 314° West 219 252 3,000  Level Chicago Center
Tue 02:21:02 PM 42.2842 -87.7833 296° West 212 244 3,000  Level Chicago Center
Tue 02:22:04 PM 42.2931 -87.8564 279° West 205 236 3,000 -194 Level Chicago Center
Tue 02:23:06 PM 42.2953 -87.9219 273° West 192 221 2,600 -242 Descending Chicago Center
Tue 02:24:08 PM 42.2744 -87.9675 238° Southwest 178 205 2,500 -48 Descending Chicago Center
Tue 02:25:10 PM 42.2256 -87.9625 176° South 178 205 2,500 -290 Level Chicago Center
Tue 02:26:12 PM 42.1831 -87.9408 159° South 169 194 1,900 -439 Descending Chicago Center
Tue 02:27:13 PM 42.1378 -87.9150 157° South 164 189 1,600 -295 Descending Chicago Center
Tue 02:29:00 PM 42.1143 -87.9015 160° South  Level Estimated

Login

Don't have an account? Register now (free) for customized features, flight alerts, and more!